Blue Horizons Flying Club, Inc.

Radar AviationWeather DUATS TFRs Wunderground Accuweather Weather.com

alt : Radar

TAFs

KCLE 262101Z 2621/2724 34006KT P6SM BKN035
   FM270200 36006KT P6SM VCSH OVC025
   FM270900 34006KT 3SM -SHSN OVC025
   FM271400 30010KT P6SM VCSH OVC025
KFWA 262034Z 2621/2718 09005KT P6SM OVC020
   FM270500 33005KT P6SM OVC020
   FM271400 29010KT P6SM OVC025
     TEMPO 2714/2716 5SM -SHSN
KDTW 262013Z 2620/2724 04005KT P6SM BKN028 OVC035
   FM270400 30005KT P6SM BKN040 OVC200
KJXN 261741Z 2618/2718 16006KT P6SM OVC025
   FM270600 02003KT P6SM OVC035
   FM271400 32006KT 6SM -SN OVC020
KTOL 261736Z 2618/2718 01005KT P6SM OVC030
   FM262300 01005KT P6SM OVC025
   FM271000 32007KT P6SM OVC025
KFDY 261736Z 2618/2718 01004KT P6SM OVC025
   FM262300 35006KT P6SM OVC025
   FM271000 32008KT P6SM OVC025

METARs

KTDZ 262238Z AUTO 01004KT 10SM BKN021 OVC044 01/M04 A3010 RMK AO2 T00061039 TSNO
KDUH 262235Z AUTO 34003KT 10SM BKN024 BKN028 OVC044 00/M03 A3010 RMK AO2
KTOL 262224Z 34005KT 10SM BKN023 OVC041 M01/M04 A3010 RMK AO2
KJXN 262156Z 00000KT 10SM OVC040 M01/M05 A3010 RMK AO2 SLP205 T10111050
KFWA 262154Z 01003KT 9SM OVC020 M02/M07 A3010 RMK AO2 SLP203 T10171067
KDTW 262153Z 31005KT 9SM OVC025 01/M04 A3011 RMK AO2 SNE52 SLP202 P0000 T00061044
KFDY 262153Z AUTO 33004KT 10SM BKN018 OVC027 01/M03 A3007 RMK AO2 SLP187 T00111033
KCLE 262151Z 25003KT 10SM OVC037 02/M04 A3006 RMK AO2 SLP187 T00171044

alt : Satellite

alt : TFRs